createdAt,value
2019-03-29T00:02:47.143Z,26.07
2019-03-29T00:07:51.180Z,19.47
2019-03-29T00:12:56.978Z,15.37
2019-03-29T00:17:59.379Z,17.97
2019-03-29T00:23:01.634Z,13.33
2019-03-29T00:28:03.813Z,19.97
2019-03-29T00:33:07.075Z,18.07
2019-03-29T00:38:18.197Z,15.87
2019-03-29T00:43:20.758Z,11.30
2019-03-29T00:48:22.919Z,11.20
2019-03-29T00:53:25.033Z,10.57
2019-03-29T00:58:27.350Z,14.53
2019-03-29T01:03:30.133Z,20.53
2019-03-29T01:08:32.298Z,20.77
2019-03-29T01:13:34.436Z,22.80
2019-03-29T01:18:37.941Z,22.70
2019-03-29T01:23:40.736Z,15.23
2019-03-29T01:28:43.423Z,19.00
2019-03-29T01:33:46.454Z,12.87
2019-03-29T01:38:48.571Z,12.27
2019-03-29T01:43:51.272Z,15.57
2019-03-29T01:48:53.551Z,19.90
2019-03-29T01:53:56.029Z,18.27
2019-03-29T01:58:58.344Z,14.33
2019-03-29T02:04:00.475Z,15.40
2019-03-29T02:09:04.983Z,15.57
2019-03-29T02:14:07.284Z,12.50
2019-03-29T02:19:09.495Z,16.67
2019-03-29T02:24:12.059Z,29.27
2019-03-29T02:29:14.419Z,34.80
2019-03-29T02:34:17.243Z,26.47
2019-03-29T02:39:19.423Z,28.13
2019-03-29T02:44:21.710Z,26.13
2019-03-29T02:49:24.836Z,36.43
2019-03-29T02:54:27.258Z,19.73
2019-03-29T02:59:29.414Z,21.97
2019-03-29T03:04:31.509Z,21.77
2019-03-29T03:09:33.660Z,18.90
2019-03-29T03:14:35.820Z,17.80
2019-03-29T03:19:38.048Z,14.03
2019-03-29T03:24:40.388Z,16.27
2019-03-29T03:29:42.576Z,13.73
2019-03-29T03:34:45.260Z,15.27
2019-03-29T03:39:47.552Z,11.17
2019-03-29T03:44:50.142Z,12.33
2019-03-29T03:49:52.292Z,17.23
2019-03-29T03:54:54.608Z,41.43
2019-03-29T03:59:56.809Z,82.00
2019-03-29T04:04:58.987Z,27.10
2019-03-29T04:10:01.615Z,16.03
2019-03-29T04:15:03.780Z,13.17
2019-03-29T04:20:06.066Z,13.07
2019-03-29T04:25:08.204Z,10.13
2019-03-29T04:30:10.472Z,8.97
2019-03-29T04:35:12.626Z,8.97
2019-03-29T04:40:14.918Z,12.30
2019-03-29T04:45:17.106Z,8.80
2019-03-29T04:50:19.371Z,9.67
2019-03-29T04:55:21.536Z,8.07
2019-03-29T05:00:23.732Z,8.27
2019-03-29T05:05:25.914Z,12.77
2019-03-29T05:10:28.091Z,11.23
2019-03-29T05:15:30.239Z,7.80
2019-03-29T05:20:32.458Z,10.23
2019-03-29T05:25:34.656Z,12.10
2019-03-29T05:30:36.754Z,12.80
2019-03-29T05:35:39.230Z,11.83
2019-03-29T05:40:41.346Z,13.55
2019-03-29T05:45:43.560Z,10.33
2019-03-29T05:50:46.013Z,9.27
2019-03-29T05:55:48.538Z,9.80
2019-03-29T06:00:50.942Z,9.37
2019-03-29T06:05:53.114Z,10.07
2019-03-29T06:10:55.282Z,12.40
2019-03-29T06:15:58.062Z,11.03
2019-03-29T06:21:00.262Z,11.17
2019-03-29T06:26:02.467Z,11.67
2019-03-29T06:31:04.806Z,13.13
2019-03-29T06:36:07.420Z,12.93
2019-03-29T06:41:09.621Z,13.47
2019-03-29T06:46:12.488Z,15.10
2019-03-29T06:51:14.677Z,13.40
2019-03-29T06:56:16.934Z,18.77
2019-03-29T07:01:19.189Z,20.10
2019-03-29T07:06:22.589Z,19.00
2019-03-29T07:11:25.538Z,33.70
2019-03-29T07:16:27.922Z,42.83
2019-03-29T07:21:30.745Z,54.73
2019-03-29T07:26:32.967Z,40.67
2019-03-29T07:31:35.154Z,51.10
2019-03-29T07:36:37.338Z,56.53
2019-03-29T07:41:39.713Z,55.47
2019-03-29T07:46:41.934Z,61.47
2019-03-29T07:51:44.276Z,58.30
2019-03-29T07:56:46.783Z,66.27
2019-03-29T08:01:48.981Z,79.23
2019-03-29T08:06:51.202Z,84.53
2019-03-29T08:11:55.124Z,83.13
2019-03-29T08:16:57.879Z,83.57
2019-03-29T08:22:00.473Z,77.70
2019-03-29T08:27:02.698Z,74.73
2019-03-29T08:32:04.809Z,73.77
2019-03-29T08:37:06.972Z,72.60
2019-03-29T08:42:09.622Z,75.10
2019-03-29T08:47:12.209Z,71.20
2019-03-29T08:52:14.465Z,77.50
2019-03-29T08:57:16.617Z,69.30
2019-03-29T09:02:18.781Z,72.70
2019-03-29T09:07:21.363Z,76.00
2019-03-29T09:12:23.630Z,82.00
2019-03-29T09:17:25.962Z,76.10
2019-03-29T09:22:28.122Z,77.73
2019-03-29T09:27:32.014Z,82.13
2019-03-29T09:32:34.473Z,80.00
2019-03-29T09:37:36.660Z,84.80
2019-03-29T09:42:38.932Z,77.83
2019-03-29T09:47:41.185Z,85.13
2019-03-29T09:52:43.435Z,96.03
2019-03-29T09:57:45.620Z,81.57
2019-03-29T10:02:47.858Z,92.83
2019-03-29T10:07:50.061Z,86.85
2019-03-29T10:12:52.286Z,87.80
2019-03-29T10:17:54.497Z,93.50
2019-03-29T10:22:56.663Z,95.07
2019-03-29T10:27:58.804Z,94.67
2019-03-29T10:33:00.961Z,89.70
2019-03-29T10:38:03.154Z,92.17
2019-03-29T10:43:05.317Z,86.72
2019-03-29T10:48:07.520Z,91.87
2019-03-29T10:53:09.758Z,91.10
2019-03-29T10:58:11.950Z,90.00
2019-03-29T11:03:15.499Z,89.05
2019-03-29T11:08:17.683Z,85.67
2019-03-29T11:13:19.842Z,83.50
2019-03-29T11:18:24.722Z,82.75
2019-03-29T11:23:30.927Z,86.40
2019-03-29T11:28:33.124Z,80.77
2019-03-29T11:33:35.314Z,77.00
2019-03-29T11:38:37.562Z,77.08
2019-03-29T11:43:40.396Z,79.90
2019-03-29T11:48:42.726Z,70.78
2019-03-29T11:53:44.904Z,73.22
2019-03-29T11:58:47.637Z,72.25
2019-03-29T12:03:49.982Z,75.35
2019-03-29T12:08:52.146Z,72.92
2019-03-29T12:13:55.903Z,67.20
2019-03-29T12:18:58.318Z,61.70
2019-03-29T12:24:00.671Z,62.23
2019-03-29T12:29:03.012Z,58.42
2019-03-29T12:34:05.521Z,60.90
2019-03-29T12:39:07.725Z,65.37
2019-03-29T12:44:09.920Z,54.95
2019-03-29T12:49:12.054Z,51.98
2019-03-29T12:54:14.187Z,49.15
2019-03-29T12:59:16.356Z,49.93
2019-03-29T13:04:18.557Z,56.95
2019-03-29T13:09:20.776Z,54.05
2019-03-29T13:14:24.034Z,57.38
2019-03-29T13:19:26.311Z,55.90
2019-03-29T13:24:28.464Z,54.80
2019-03-29T13:29:31.974Z,51.65
2019-03-29T13:34:34.726Z,49.75
2019-03-29T13:39:36.856Z,49.77
2019-03-29T13:44:38.935Z,48.15
2019-03-29T13:49:41.036Z,46.45
2019-03-29T13:54:43.280Z,47.60
2019-03-29T13:59:45.453Z,44.13
2019-03-29T14:04:47.550Z,45.35
2019-03-29T14:09:49.702Z,45.23
2019-03-29T14:14:51.844Z,46.33
2019-03-29T14:19:54.088Z,42.05
2019-03-29T14:24:56.584Z,42.17
2019-03-29T14:30:04.775Z,41.05
2019-03-29T14:35:06.614Z,42.90
2019-03-29T14:40:09.010Z,36.88
2019-03-29T14:45:11.359Z,43.58
2019-03-29T14:50:14.192Z,39.98
2019-03-29T14:55:16.565Z,41.00
2019-03-29T15:00:34.155Z,39.92
2019-03-29T15:05:37.412Z,41.68
2019-03-29T15:10:39.988Z,42.55
2019-03-29T15:15:42.419Z,38.02
2019-03-29T15:20:53.442Z,37.23
2019-03-29T15:25:50.361Z,40.63
2019-03-29T15:30:53.706Z,42.58
2019-03-29T15:35:59.917Z,38.85
2019-03-29T15:41:05.683Z,42.33
2019-03-29T15:46:08.167Z,45.10
2019-03-29T15:51:11.094Z,37.78
2019-03-29T15:56:13.641Z,38.30
2019-03-29T16:01:16.117Z,37.20
2019-03-29T16:06:18.618Z,42.27
2019-03-29T16:11:22.534Z,35.68
2019-03-29T16:16:25.194Z,31.93
2019-03-29T16:21:27.720Z,35.58
2019-03-29T16:26:30.186Z,31.23
2019-03-29T16:31:32.776Z,34.05
2019-03-29T16:36:35.052Z,35.48
2019-03-29T16:41:37.323Z,34.83
2019-03-29T16:46:40.123Z,32.05
2019-03-29T16:51:42.364Z,30.12
2019-03-29T16:56:44.686Z,29.20
2019-03-29T17:01:46.924Z,31.57
2019-03-29T17:06:50.150Z,30.82
2019-03-29T17:11:52.294Z,28.98
2019-03-29T17:16:54.442Z,30.08
2019-03-29T17:21:57.131Z,31.07
2019-03-29T17:26:59.475Z,32.50
2019-03-29T17:32:01.705Z,29.40
2019-03-29T17:37:03.853Z,33.85
2019-03-29T17:42:08.199Z,31.62
2019-03-29T17:47:10.501Z,41.83
2019-03-29T17:52:12.769Z,39.48
2019-03-29T17:57:15.056Z,46.33
2019-03-29T18:02:17.188Z,45.98
2019-03-29T18:07:19.403Z,45.58
2019-03-29T18:12:22.025Z,49.33
2019-03-29T18:17:24.846Z,48.20
2019-03-29T18:22:27.071Z,49.67
2019-03-29T18:27:29.305Z,44.57
2019-03-29T18:32:31.893Z,51.63
2019-03-29T18:37:34.360Z,51.18
2019-03-29T18:42:36.695Z,50.20
2019-03-29T18:47:41.858Z,54.90
2019-03-29T18:52:44.591Z,52.70
2019-03-29T18:57:49.036Z,52.63
2019-03-29T19:02:54.494Z,61.67
2019-03-29T19:07:58.313Z,52.30
2019-03-29T19:13:00.793Z,46.40
2019-03-29T19:18:03.445Z,47.87
2019-03-29T19:23:05.573Z,49.73
2019-03-29T19:28:08.163Z,53.90
2019-03-29T19:33:10.347Z,53.10
2019-03-29T19:38:12.591Z,48.20
2019-03-29T19:43:20.741Z,46.43
2019-03-29T19:48:22.888Z,53.03
2019-03-29T19:53:26.118Z,50.53
2019-03-29T19:58:28.333Z,57.33
2019-03-29T20:03:30.524Z,60.67
2019-03-29T20:08:32.955Z,70.57
2019-03-29T20:13:35.137Z,70.73
2019-03-29T20:18:38.287Z,78.40
2019-03-29T20:23:40.533Z,83.77
2019-03-29T20:28:45.209Z,83.77
2019-03-29T20:33:47.880Z,81.27
2019-03-29T20:38:51.584Z,77.60
2019-03-29T20:43:53.827Z,77.70
2019-03-29T20:49:06.315Z,78.97
2019-03-29T20:54:08.484Z,74.67
2019-03-29T20:59:10.897Z,78.87
2019-03-29T21:04:13.420Z,83.73
2019-03-29T21:09:15.512Z,76.10
2019-03-29T21:14:18.063Z,77.53
2019-03-29T21:19:20.482Z,81.07
2019-03-29T21:24:22.774Z,81.43
2019-03-29T21:29:25.117Z,83.57
2019-03-29T21:34:27.679Z,90.77
2019-03-29T21:39:31.378Z,98.30
2019-03-29T21:44:33.728Z,101.20
2019-03-29T21:49:36.248Z,96.53
2019-03-29T21:54:39.261Z,101.13
2019-03-29T21:59:41.518Z,108.80
2019-03-29T22:04:43.744Z,98.30
2019-03-29T22:09:45.956Z,99.20
2019-03-29T22:14:48.106Z,102.27
2019-03-29T22:19:51.149Z,106.63
2019-03-29T22:24:53.301Z,107.80
2019-03-29T22:29:55.991Z,101.30
2019-03-29T22:34:58.308Z,99.90
2019-03-29T22:40:00.433Z,103.37
2019-03-29T22:45:02.971Z,96.00
2019-03-29T22:50:06.031Z,104.80
2019-03-29T22:55:08.285Z,102.60
2019-03-29T23:00:17.832Z,118.50
2019-03-29T23:05:20.147Z,116.70
2019-03-29T23:10:22.280Z,114.67
2019-03-29T23:15:24.454Z,112.47
2019-03-29T23:20:27.397Z,107.90
2019-03-29T23:25:29.558Z,112.83
2019-03-29T23:30:32.052Z,126.30
2019-03-29T23:35:34.166Z,118.87
2019-03-29T23:40:36.698Z,111.20
2019-03-29T23:45:39.145Z,115.83
2019-03-29T23:50:41.278Z,116.73
2019-03-29T23:55:43.418Z,113.63
